Time;durP1;ratioP1;P1;durP2;ratioP2;P2;SDS_P1;SDS_P2;PMS_P1;PMS_P2;Temp;Humidity;BMP_temperature;BMP_pressure;BME280_temperature;BME280_humidity;BME280_pressure;Samples;Min_cycle;Max_cycle;Signal;HPM_P1;HPM_P2
2022/03/02 00:02:18;;;;;;;12.27;11.07;;;22.20;63.30;;;;;;6061328;28;89186;-65
2022/03/02 00:05:21;;;;;;;12.57;11.32;;;22.10;63.20;;;;;;6063352;28;89797;-65
2022/03/02 00:08:23;;;;;;;12.45;11.25;;;22.10;63.20;;;;;;6061808;28;89701;-65
2022/03/02 00:11:27;;;;;;;11.70;10.60;;;22.10;63.20;;;;;;6061751;28;89052;-65
2022/03/02 00:14:29;;;;;;;12.40;11.00;;;22.20;63.20;;;;;;6063181;28;89077;-65
2022/03/02 00:17:33;;;;;;;12.02;10.85;;;22.10;63.20;;;;;;6064613;28;89180;-65
2022/03/02 00:20:35;;;;;;;11.70;10.57;;;22.10;63.20;;;;;;6064056;28;89234;-65
2022/03/02 00:23:37;;;;;;;12.00;10.80;;;22.10;63.20;;;;;;6058677;28;89101;-65
2022/03/02 00:26:40;;;;;;;11.30;10.20;;;22.20;63.20;;;;;;6054603;28;87465;-65
2022/03/02 00:29:42;;;;;;;11.30;10.23;;;22.10;63.20;;;;;;6064161;28;88828;-65
2022/03/02 00:32:45;;;;;;;11.40;10.30;;;22.10;63.20;;;;;;6065076;28;89208;-65
2022/03/02 00:35:48;;;;;;;11.30;10.20;;;22.10;63.20;;;;;;6062415;28;87961;-65
2022/03/02 00:38:50;;;;;;;11.85;10.50;;;22.10;63.10;;;;;;6064341;28;89192;-65
2022/03/02 00:41:52;;;;;;;11.40;10.30;;;22.10;63.20;;;;;;6062556;28;89208;-65
2022/03/02 00:44:54;;;;;;;11.43;10.05;;;22.10;63.20;;;;;;6050832;28;89183;-65
2022/03/02 00:47:58;;;;;;;10.05;9.05;;;22.10;63.20;;;;;;6062053;28;89291;-65
2022/03/02 00:51:00;;;;;;;9.80;8.80;;;22.10;63.20;;;;;;6053853;28;89479;-65
2022/03/02 00:54:03;;;;;;;10.68;9.57;;;22.10;63.20;;;;;;6053798;28;91419;-65
2022/03/02 00:57:05;;;;;;;10.43;9.43;;;22.10;63.20;;;;;;6062400;28;88666;-65
2022/03/02 01:00:09;;;;;;;10.43;9.43;;;22.10;63.20;;;;;;6063615;28;89177;-65
2022/03/02 01:03:12;;;;;;;10.50;9.50;;;22.10;63.30;;;;;;6063578;28;89041;-65
2022/03/02 01:06:15;;;;;;;10.02;9.00;;;22.10;63.20;;;;;;6069184;28;88628;-65
2022/03/02 01:09:17;;;;;;;9.23;8.13;;;22.10;63.10;;;;;;6063221;28;89069;-65
2022/03/02 01:12:19;;;;;;;9.50;8.50;;;22.10;62.50;;;;;;6077528;28;88060;-65
2022/03/02 01:15:21;;;;;;;10.18;8.88;;;22.10;62.40;;;;;;6050837;28;89288;-64
2022/03/02 01:18:25;;;;;;;9.50;8.57;;;22.00;62.70;;;;;;6063926;28;89239;-65
2022/03/02 01:21:27;;;;;;;9.27;8.35;;;22.10;62.80;;;;;;6062654;28;89165;-65
2022/03/02 01:24:29;;;;;;;9.23;8.30;;;22.00;62.70;;;;;;6063302;28;89264;-65
2022/03/02 01:27:31;;;;;;;9.00;8.10;;;22.10;62.80;;;;;;6064664;28;88347;-65
2022/03/02 01:30:33;;;;;;;9.20;8.10;;;22.10;62.80;;;;;;6062977;28;88967;-65
2022/03/02 01:33:37;;;;;;;8.90;8.00;;;22.10;62.80;;;;;;6056392;28;89012;-65
2022/03/02 01:36:39;;;;;;;9.05;8.15;;;22.10;62.90;;;;;;6045166;28;90059;-65
2022/03/02 01:39:41;;;;;;;8.85;7.88;;;22.10;62.90;;;;;;6063525;28;89072;-65
2022/03/02 01:42:44;;;;;;;8.55;7.68;;;22.10;62.90;;;;;;6049042;28;89134;-65
2022/03/02 01:45:47;;;;;;;8.27;7.47;;;22.00;63.00;;;;;;6063511;28;89178;-65
2022/03/02 01:48:51;;;;;;;8.55;7.65;;;22.00;63.00;;;;;;6063404;28;89246;-65
2022/03/02 01:51:53;;;;;;;8.77;7.90;;;22.10;63.00;;;;;;6055503;28;88895;-65
2022/03/02 01:54:55;;;;;;;8.50;7.70;;;22.00;63.00;;;;;;6050404;28;89109;-65
2022/03/02 01:57:58;;;;;;;8.70;7.80;;;22.10;63.10;;;;;;6061029;28;88236;-65
2022/03/02 02:01:01;;;;;;;8.35;7.45;;;22.00;63.00;;;;;;6060300;28;89291;-65
2022/03/02 02:04:05;;;;;;;8.13;7.32;;;22.00;63.00;;;;;;6053268;28;89158;-65
2022/03/02 02:07:07;;;;;;;8.07;7.28;;;22.00;63.10;;;;;;6065766;28;89999;-65
2022/03/02 02:10:10;;;;;;;7.80;7.00;;;22.00;63.10;;;;;;6059412;28;89012;-65
2022/03/02 02:13:12;;;;;;;8.02;7.22;;;22.00;63.10;;;;;;6065947;28;89008;-65
2022/03/02 02:16:16;;;;;;;8.00;7.00;;;22.00;63.10;;;;;;6062057;28;87702;-65
2022/03/02 02:19:19;;;;;;;8.93;7.32;;;22.00;63.10;;;;;;6061007;28;89232;-66
2022/03/02 02:22:23;;;;;;;7.88;7.07;;;22.00;63.00;;;;;;6051613;28;88939;-65
2022/03/02 02:25:25;;;;;;;7.82;7.13;;;22.10;63.10;;;;;;6061725;28;89342;-66
2022/03/02 02:28:29;;;;;;;7.90;7.10;;;22.00;63.00;;;;;;6058060;28;88790;-65
2022/03/02 02:31:31;;;;;;;7.20;6.55;;;22.00;63.00;;;;;;6055626;28;89150;-65
2022/03/02 02:34:33;;;;;;;7.43;6.68;;;22.00;63.00;;;;;;6062299;28;87961;-65
2022/03/02 02:37:38;;;;;;;6.88;6.28;;;22.00;63.00;;;;;;6060335;28;90057;-65
2022/03/02 02:40:42;;;;;;;6.72;6.13;;;22.00;63.10;;;;;;6051270;28;89228;-65
2022/03/02 02:43:44;;;;;;;7.22;6.53;;;22.00;63.20;;;;;;6065554;28;90878;-65
2022/03/02 02:46:46;;;;;;;7.10;6.43;;;22.00;63.10;;;;;;6058312;28;89057;-65
2022/03/02 02:49:49;;;;;;;7.32;6.60;;;22.00;63.20;;;;;;6043043;28;89205;-65
2022/03/02 02:52:54;;;;;;;7.25;6.63;;;22.00;63.20;;;;;;6066735;28;88117;-65
2022/03/02 02:55:56;;;;;;;6.75;6.15;;;22.00;63.20;;;;;;6062037;28;87980;-65
2022/03/02 02:58:58;;;;;;;7.00;6.30;;;22.00;63.20;;;;;;6060162;28;88423;-65
2022/03/02 03:02:00;;;;;;;7.10;6.40;;;21.90;63.10;;;;;;6045983;28;89165;-65
2022/03/02 03:05:02;;;;;;;6.75;5.68;;;22.00;63.20;;;;;;6065233;28;89016;-65
2022/03/02 03:08:09;;;;;;;6.95;6.13;;;22.00;63.20;;;;;;6059739;28;88960;-66
2022/03/02 03:11:11;;;;;;;6.50;5.90;;;22.00;63.20;;;;;;6061750;28;89283;-65
2022/03/02 03:14:15;;;;;;;8.25;6.63;;;22.00;63.20;;;;;;6064009;28;88036;-65
2022/03/02 03:17:17;;;;;;;7.43;6.30;;;22.00;63.10;;;;;;6063507;28;89189;-65
2022/03/02 03:20:21;;;;;;;6.80;6.13;;;22.00;63.10;;;;;;6050369;28;89987;-65
2022/03/02 03:23:25;;;;;;;6.50;5.90;;;22.00;63.10;;;;;;6048493;28;88908;-65
2022/03/02 03:26:28;;;;;;;7.88;6.03;;;22.00;64.00;;;;;;6060576;28;88907;-65
2022/03/02 03:29:30;;;;;;;6.47;5.88;;;22.00;63.10;;;;;;6061380;28;88222;-65
2022/03/02 03:32:32;;;;;;;7.40;5.93;;;22.00;63.20;;;;;;6060241;28;89168;-65
2022/03/02 03:35:35;;;;;;;6.43;5.82;;;22.00;63.20;;;;;;6050032;28;89191;-65
2022/03/02 03:38:38;;;;;;;6.32;5.60;;;21.90;63.00;;;;;;6056002;28;90042;-65
2022/03/02 03:41:40;;;;;;;6.15;5.55;;;21.90;63.10;;;;;;6069149;28;89189;-65
2022/03/02 03:44:42;;;;;;;6.18;5.43;;;22.00;63.20;;;;;;6065570;28;89152;-65
2022/03/02 03:47:45;;;;;;;6.45;5.85;;;22.00;63.20;;;;;;6061529;28;89189;-65
2022/03/02 03:50:47;;;;;;;6.18;5.57;;;21.90;63.20;;;;;;6067843;28;89079;-65
2022/03/02 03:53:51;;;;;;;6.13;5.53;;;21.90;63.10;;;;;;6065159;28;89163;-65
2022/03/02 03:56:53;;;;;;;6.40;5.80;;;21.90;63.10;;;;;;6070344;28;89081;-65
2022/03/02 03:59:55;;;;;;;6.25;5.70;;;21.90;63.10;;;;;;6066050;28;88336;-66
2022/03/02 04:02:57;;;;;;;6.03;5.43;;;22.00;63.20;;;;;;6066032;28;89083;-65
2022/03/02 04:05:59;;;;;;;6.22;5.63;;;22.00;63.20;;;;;;6064763;28;89397;-65
2022/03/02 04:09:03;;;;;;;6.13;5.53;;;22.00;63.10;;;;;;6064145;28;92097;-65
2022/03/02 04:12:06;;;;;;;6.50;5.80;;;22.00;63.10;;;;;;6064767;28;87918;-65
2022/03/02 04:15:10;;;;;;;6.07;5.47;;;22.00;63.00;;;;;;6062821;28;89170;-65
2022/03/02 04:18:12;;;;;;;6.00;5.40;;;22.00;63.00;;;;;;6063686;28;88887;-65
2022/03/02 04:21:14;;;;;;;5.82;5.32;;;22.00;63.00;;;;;;6059307;28;88400;-65
2022/03/02 04:24:18;;;;;;;5.95;5.30;;;22.00;63.10;;;;;;6052702;28;89238;-65
2022/03/02 04:27:20;;;;;;;5.22;4.72;;;22.00;63.00;;;;;;6064276;28;89028;-65
2022/03/02 04:30:22;;;;;;;5.82;5.25;;;22.00;63.00;;;;;;6064011;28;88694;-66
2022/03/02 04:33:24;;;;;;;6.00;5.40;;;22.00;63.10;;;;;;6053829;28;89143;-65
2022/03/02 04:36:27;;;;;;;5.68;5.15;;;22.00;63.10;;;;;;6064366;28;90217;-65
2022/03/02 04:39:30;;;;;;;5.70;5.07;;;22.00;63.10;;;;;;6053064;28;90078;-65
2022/03/02 04:42:32;;;;;;;5.65;5.15;;;22.00;63.10;;;;;;6042726;28;88040;-65
2022/03/02 04:45:34;;;;;;;5.72;5.10;;;22.00;63.00;;;;;;6053204;28;89161;-65
2022/03/02 04:48:36;;;;;;;5.25;4.75;;;22.00;63.00;;;;;;6068805;28;89002;-65
2022/03/02 04:51:39;;;;;;;5.85;5.25;;;22.00;63.00;;;;;;6074150;28;88008;-65
2022/03/02 04:58:00;;;;;;;5.50;5.00;;;22.00;63.00;;;;;;6035538;28;87766;-65
2022/03/02 05:01:03;;;;;;;5.75;5.20;;;22.00;63.10;;;;;;6046119;28;87607;-65
2022/03/02 05:04:05;;;;;;;5.80;5.20;;;22.00;63.10;;;;;;6049620;28;89094;-65
2022/03/02 05:07:07;;;;;;;5.72;5.18;;;22.00;63.00;;;;;;6061875;28;88148;-66
2022/03/02 05:10:12;;;;;;;5.55;4.97;;;22.00;63.10;;;;;;6051042;28;90104;-66
2022/03/02 05:13:14;;;;;;;4.95;4.55;;;22.00;63.00;;;;;;6058337;28;87992;-65
2022/03/02 05:16:16;;;;;;;13.18;5.15;;;22.00;63.00;;;;;;6063545;28;89108;-65
2022/03/02 05:19:18;;;;;;;5.55;5.03;;;22.00;63.00;;;;;;6071751;28;89132;-66
2022/03/02 05:22:21;;;;;;;5.40;4.90;;;22.00;63.00;;;;;;6082811;28;89293;-65
2022/03/02 05:25:24;;;;;;;5.65;5.15;;;22.00;63.00;;;;;;6040170;28;89044;-65
2022/03/02 05:28:26;;;;;;;5.57;5.07;;;22.00;63.00;;;;;;6059207;28;87944;-65
2022/03/02 05:31:29;;;;;;;6.28;5.38;;;22.00;63.00;;;;;;6072349;28;88444;-65
2022/03/02 05:34:31;;;;;;;5.00;4.50;;;22.00;63.00;;;;;;6051814;28;88220;-65
2022/03/02 05:37:33;;;;;;;5.28;4.78;;;22.00;63.00;;;;;;6046978;28;88897;-65
2022/03/02 05:40:37;;;;;;;5.32;4.82;;;22.00;63.00;;;;;;6051873;28;90003;-65
2022/03/02 05:43:39;;;;;;;6.05;5.43;;;22.00;63.00;;;;;;6061990;28;88887;-65
2022/03/02 05:46:41;;;;;;;5.80;5.30;;;22.00;62.90;;;;;;6076331;28;89284;-65
2022/03/02 05:49:43;;;;;;;5.60;5.10;;;22.00;62.90;;;;;;6069446;28;88318;-65
2022/03/02 05:52:45;;;;;;;5.20;4.70;;;22.00;62.90;;;;;;6038929;28;89114;-65
2022/03/02 05:55:49;;;;;;;5.32;4.82;;;22.00;62.90;;;;;;6054775;28;89583;-65
2022/03/02 05:58:51;;;;;;;5.43;4.88;;;22.00;62.90;;;;;;6053620;28;89093;-65
2022/03/02 06:01:53;;;;;;;5.53;5.00;;;22.10;63.00;;;;;;6051331;28;87376;-65
2022/03/02 06:04:55;;;;;;;5.30;4.80;;;22.00;62.80;;;;;;6062295;28;89129;-65
2022/03/02 06:07:57;;;;;;;5.30;4.80;;;22.10;62.90;;;;;;6040330;28;88871;-65
2022/03/02 06:11:02;;;;;;;5.45;4.95;;;22.00;62.80;;;;;;6050244;28;90342;-66
2022/03/02 06:14:05;;;;;;;4.75;4.35;;;22.10;63.00;;;;;;6047474;28;88962;-65
2022/03/02 06:17:09;;;;;;;5.28;4.78;;;22.00;62.90;;;;;;6056183;28;88005;-65
2022/03/02 06:20:12;;;;;;;5.57;5.07;;;22.00;63.00;;;;;;6072754;28;89184;-66
2022/03/02 06:23:15;;;;;;;5.65;4.82;;;22.10;63.00;;;;;;6061799;28;89003;-66
2022/03/02 06:26:21;;;;;;;4.88;4.47;;;22.00;62.90;;;;;;6063153;28;89171;-65
2022/03/02 06:29:23;;;;;;;5.50;5.00;;;22.10;63.00;;;;;;6062576;28;87927;-65
2022/03/02 06:32:25;;;;;;;5.30;4.80;;;22.10;63.00;;;;;;6058898;28;88440;-66
2022/03/02 06:35:27;;;;;;;5.97;4.80;;;22.10;62.90;;;;;;6037077;28;89176;-65
2022/03/02 06:38:29;;;;;;;5.28;4.78;;;22.10;63.00;;;;;;6046800;28;89063;-65
2022/03/02 06:41:46;;;;;;;5.18;4.78;;;22.10;62.90;;;;;;6044637;28;90034;-65
2022/03/02 06:44:56;;;;;;;5.85;4.85;;;22.10;62.90;;;;;;6042980;28;89153;-65
2022/03/02 06:48:07;;;;;;;5.50;5.00;;;22.10;62.90;;;;;;6040521;28;89126;-65
2022/03/02 06:51:12;;;;;;;5.20;4.70;;;22.10;62.90;;;;;;6037263;28;89056;-65
2022/03/02 06:54:19;;;;;;;6.03;5.00;;;22.10;62.90;;;;;;6052297;28;89390;-65
2022/03/02 06:57:27;;;;;;;6.28;5.00;;;22.10;62.90;;;;;;6042400;28;88029;-65
2022/03/02 07:00:32;;;;;;;5.03;4.45;;;22.20;63.00;;;;;;6039675;28;89352;-65
2022/03/02 07:03:39;;;;;;;5.28;4.78;;;22.20;63.00;;;;;;6047637;28;88355;-66
2022/03/02 07:06:43;;;;;;;4.97;4.57;;;22.20;63.20;;;;;;6039923;28;89097;-64
2022/03/02 07:09:47;;;;;;;4.97;4.57;;;22.20;63.30;;;;;;6048869;28;89257;-67
2022/03/02 07:12:51;;;;;;;4.93;4.47;;;22.20;63.40;;;;;;6062357;28;89024;-67
2022/03/02 07:15:53;;;;;;;5.28;4.75;;;22.30;63.70;;;;;;6048934;28;89593;-67
2022/03/02 07:18:55;;;;;;;6.57;5.05;;;22.20;63.70;;;;;;6061905;28;89414;-66
2022/03/02 07:22:01;;;;;;;5.10;4.60;;;22.30;63.90;;;;;;6063818;28;88050;-68
2022/03/02 07:25:07;;;;;;;5.18;4.68;;;22.30;63.90;;;;;;6038432;28;89092;-67
2022/03/02 07:28:13;;;;;;;5.65;4.78;;;22.30;63.80;;;;;;6060385;28;89098;-67
2022/03/02 07:31:15;;;;;;;4.93;4.50;;;22.30;63.70;;;;;;6052623;28;89098;-67
2022/03/02 07:34:18;;;;;;;6.63;4.80;;;22.30;63.70;;;;;;6040401;28;88316;-67
2022/03/02 07:37:21;;;;;;;5.18;4.68;;;22.30;63.60;;;;;;6037679;28;89287;-67
2022/03/02 07:40:23;;;;;;;6.47;5.00;;;22.30;63.60;;;;;;6040045;28;89129;-67
2022/03/02 07:43:28;;;;;;;5.15;4.65;;;22.30;63.60;;;;;;6050696;28;90112;-66
2022/03/02 07:46:32;;;;;;;5.28;4.78;;;22.30;63.60;;;;;;6053607;28;89307;-66
2022/03/02 07:49:34;;;;;;;5.10;4.60;;;22.30;63.60;;;;;;6043735;28;89208;-66
2022/03/02 07:52:38;;;;;;;5.47;4.97;;;22.30;63.80;;;;;;6045907;28;89004;-66
2022/03/02 07:55:42;;;;;;;4.80;4.38;;;22.30;63.70;;;;;;6049448;28;89144;-67
2022/03/02 07:58:46;;;;;;;4.78;4.32;;;22.30;63.80;;;;;;6064712;28;89148;-67
2022/03/02 08:01:49;;;;;;;5.03;4.55;;;22.30;63.70;;;;;;6062498;28;89080;-67
2022/03/02 08:04:53;;;;;;;5.10;4.50;;;22.30;63.70;;;;;;6057505;28;88437;-67
2022/03/02 08:07:55;;;;;;;5.05;4.55;;;22.30;63.70;;;;;;6055529;28;89160;-67
2022/03/02 08:10:57;;;;;;;5.30;4.80;;;22.40;63.70;;;;;;6054406;28;89011;-67
2022/03/02 08:14:03;;;;;;;5.30;4.80;;;22.40;63.80;;;;;;6052759;28;88952;-67
2022/03/02 08:17:06;;;;;;;4.78;4.30;;;22.40;63.70;;;;;;6058604;28;89202;-66
2022/03/02 08:20:09;;;;;;;5.03;4.60;;;22.40;63.70;;;;;;6050880;28;88932;-67
2022/03/02 08:23:11;;;;;;;5.78;4.72;;;22.40;63.70;;;;;;6057245;28;89211;-67
2022/03/02 08:26:15;;;;;;;5.00;4.50;;;22.40;63.60;;;;;;6054805;28;88856;-67
2022/03/02 08:29:21;;;;;;;4.93;4.43;;;22.40;63.60;;;;;;6037071;28;89177;-66
2022/03/02 08:32:24;;;;;;;4.85;4.45;;;22.50;63.70;;;;;;6056491;28;89083;-67
2022/03/02 08:35:27;;;;;;;5.78;4.70;;;22.50;63.70;;;;;;6057769;28;88420;-67
2022/03/02 08:38:29;;;;;;;5.13;4.60;;;22.40;63.60;;;;;;6062393;28;89298;-67
2022/03/02 08:41:32;;;;;;;4.65;4.25;;;22.40;63.60;;;;;;6066007;28;89219;-67
2022/03/02 08:44:36;;;;;;;4.55;4.15;;;22.40;63.60;;;;;;6063253;28;89961;-67
2022/03/02 08:47:38;;;;;;;4.95;4.45;;;22.40;63.70;;;;;;6041067;28;89304;-66
2022/03/02 08:50:41;;;;;;;4.72;4.32;;;22.40;63.70;;;;;;6052128;28;89498;-67
2022/03/02 08:53:44;;;;;;;4.90;4.40;;;22.40;63.60;;;;;;6051847;28;89442;-67
2022/03/02 08:56:48;;;;;;;4.63;4.22;;;22.50;63.70;;;;;;6064096;28;88295;-67
2022/03/02 08:59:54;;;;;;;4.40;3.95;;;22.40;63.60;;;;;;6044711;28;89231;-67
2022/03/02 09:02:57;;;;;;;4.60;4.20;;;22.50;63.60;;;;;;6054524;28;89081;-66
2022/03/02 09:05:59;;;;;;;5.00;4.50;;;22.50;63.60;;;;;;6059318;28;88701;-67
2022/03/02 09:09:01;;;;;;;4.57;4.18;;;22.50;63.70;;;;;;6060877;28;89446;-67
2022/03/02 09:12:04;;;;;;;4.88;4.43;;;22.50;63.70;;;;;;6055123;28;89382;-67
2022/03/02 09:15:09;;;;;;;4.53;4.13;;;22.50;63.70;;;;;;6051116;28;90075;-66
2022/03/02 09:18:11;;;;;;;4.80;4.30;;;22.50;63.70;;;;;;6063289;28;89020;-67
2022/03/02 09:21:15;;;;;;;4.55;4.15;;;22.50;63.70;;;;;;6059433;28;88012;-67
2022/03/02 09:24:37;;;;;;;4.40;4.00;;;22.50;63.70;;;;;;6050183;28;89468;-67
2022/03/02 09:27:40;;;;;;;4.63;4.22;;;22.50;63.70;;;;;;6056291;28;89085;-67
2022/03/02 09:30:44;;;;;;;6.40;4.50;;;22.50;63.50;;;;;;6058131;28;89342;-66
2022/03/02 09:33:49;;;;;;;5.45;4.22;;;22.50;63.50;;;;;;6061936;28;89081;-65
2022/03/02 09:36:54;;;;;;;4.80;4.13;;;22.50;63.80;;;;;;6052675;28;88376;-66
2022/03/02 09:39:56;;;;;;;4.40;4.00;;;22.50;63.80;;;;;;6061085;28;89208;-66
2022/03/02 09:43:00;;;;;;;5.00;4.47;;;22.50;63.30;;;;;;6052215;28;89252;-66
2022/03/02 09:46:06;;;;;;;4.65;4.20;;;22.50;62.20;;;;;;6049885;28;89904;-66
2022/03/02 09:49:11;;;;;;;4.72;4.32;;;22.50;61.10;;;;;;6062388;28;89056;-66
2022/03/02 09:52:17;;;;;;;6.85;4.53;;;22.40;60.10;;;;;;6050235;28;89042;-66
2022/03/02 09:55:22;;;;;;;5.25;4.60;;;22.50;59.60;;;;;;6062169;28;89165;-66
2022/03/02 09:58:27;;;;;;;5.05;4.28;;;22.50;59.10;;;;;;6049323;28;89252;-66
2022/03/02 10:01:33;;;;;;;5.60;5.00;;;22.40;58.70;;;;;;6053073;28;89138;-66
2022/03/02 10:04:36;;;;;;;4.70;4.30;;;22.40;59.10;;;;;;6062512;28;88000;-66
2022/03/02 10:07:41;;;;;;;4.57;4.18;;;22.50;59.50;;;;;;6061684;28;88781;-66
2022/03/02 10:10:43;;;;;;;4.22;3.83;;;22.50;59.70;;;;;;6062016;28;89127;-66
2022/03/02 10:13:45;;;;;;;4.40;4.00;;;22.50;59.90;;;;;;6052151;28;88861;-66
2022/03/02 10:16:58;;;;;;;4.75;4.22;;;22.50;60.00;;;;;;6051706;28;90233;-66
2022/03/02 10:20:03;;;;;;;4.20;3.80;;;22.50;60.10;;;;;;6048639;28;88968;-66
2022/03/02 10:23:40;;;;;;;5.82;4.25;;;22.50;60.20;;;;;;6057858;28;89434;-66
2022/03/02 10:26:50;;;;;;;4.35;3.95;;;22.50;60.50;;;;;;6045126;28;89400;-67
2022/03/02 10:30:04;;;;;;;4.68;3.80;;;22.50;60.60;;;;;;6049955;28;89103;-66
2022/03/02 10:33:19;;;;;;;4.20;3.80;;;22.50;60.80;;;;;;6045172;28;88026;-66
2022/03/02 10:36:25;;;;;;;4.20;3.80;;;22.50;60.90;;;;;;6054669;28;89117;-66
2022/03/02 10:39:48;;;;;;;4.55;3.95;;;22.50;61.00;;;;;;6051954;28;88478;-66
2022/03/02 10:42:55;;;;;;;4.05;3.63;;;22.50;61.10;;;;;;6040250;28;89097;-67
2022/03/02 10:45:58;;;;;;;4.25;3.85;;;22.50;61.20;;;;;;6050955;28;89287;-67
2022/03/02 10:49:06;;;;;;;4.15;3.40;;;22.50;61.30;;;;;;6048187;28;90011;-67
2022/03/02 10:52:11;;;;;;;4.32;3.92;;;22.50;61.40;;;;;;6057250;28;89147;-66
2022/03/02 10:55:14;;;;;;;4.07;3.67;;;22.50;61.50;;;;;;6043770;28;89057;-66
2022/03/02 10:58:21;;;;;;;4.25;3.80;;;22.50;61.60;;;;;;6056323;28;89133;-67
2022/03/02 11:01:23;;;;;;;5.18;3.80;;;22.50;61.60;;;;;;6051550;28;89215;-66
2022/03/02 11:04:30;;;;;;;3.95;3.50;;;22.50;61.70;;;;;;6050145;28;89559;-66
2022/03/02 11:07:32;;;;;;;4.22;3.35;;;22.50;61.80;;;;;;6058396;28;87892;-66
2022/03/02 11:10:37;;;;;;;5.60;3.80;;;22.50;61.80;;;;;;6050703;28;90220;-66
2022/03/02 11:13:39;;;;;;;3.72;3.42;;;22.50;61.90;;;;;;6057812;28;89356;-66
2022/03/02 11:16:43;;;;;;;4.18;3.78;;;22.50;61.90;;;;;;6051459;28;89009;-66
2022/03/02 11:19:47;;;;;;;3.70;3.40;;;22.60;62.10;;;;;;6049456;28;90591;-67
2022/03/02 11:22:58;;;;;;;3.90;3.60;;;22.50;62.20;;;;;;6047983;28;89647;-66
2022/03/02 11:26:06;;;;;;;3.53;3.22;;;22.50;62.20;;;;;;6056629;28;89111;-67
2022/03/02 11:29:12;;;;;;;4.00;3.45;;;22.50;62.30;;;;;;6036598;28;88961;-66
2022/03/02 11:32:14;;;;;;;3.90;3.30;;;22.50;62.40;;;;;;6038538;28;89108;-66
2022/03/02 11:35:19;;;;;;;4.60;3.50;;;22.50;62.40;;;;;;6038480;28;88423;-66
2022/03/02 11:38:23;;;;;;;3.80;3.50;;;22.50;62.40;;;;;;6052152;28;88080;-66
2022/03/02 11:41:33;;;;;;;3.90;3.40;;;22.50;62.50;;;;;;6050589;28;88524;-66
2022/03/02 11:44:37;;;;;;;3.63;3.33;;;22.50;62.50;;;;;;6060318;28;88297;-66
2022/03/02 11:47:43;;;;;;;3.47;3.17;;;22.50;62.50;;;;;;6050063;28;89118;-66
2022/03/02 11:51:06;;;;;;;3.95;3.55;;;22.50;62.60;;;;;;6048074;28;89028;-66
2022/03/02 11:54:10;;;;;;;4.68;3.42;;;22.60;62.60;;;;;;6041112;28;89201;-66
2022/03/02 11:57:13;;;;;;;4.43;3.30;;;22.50;62.80;;;;;;6044293;28;88988;-66
2022/03/02 12:00:18;;;;;;;3.70;3.20;;;22.50;63.00;;;;;;6042741;28;89134;-66
2022/03/02 12:03:20;;;;;;;4.57;3.35;;;22.50;63.10;;;;;;6039892;28;88224;-66
2022/03/02 12:06:24;;;;;;;3.70;3.40;;;22.50;63.00;;;;;;6055490;28;89458;-66
2022/03/02 12:09:28;;;;;;;3.80;3.20;;;22.50;63.00;;;;;;6041951;28;88072;-66
2022/03/02 12:12:30;;;;;;;3.78;3.22;;;22.50;63.10;;;;;;6055556;28;88376;-67
2022/03/02 12:15:44;;;;;;;4.03;3.10;;;22.50;63.10;;;;;;6054465;28;89060;-66
2022/03/02 12:18:46;;;;;;;3.78;3.42;;;22.50;63.20;;;;;;6052154;28;89270;-66
2022/03/02 12:21:51;;;;;;;3.63;3.20;;;22.50;63.20;;;;;;6051753;28;88016;-66
2022/03/02 12:24:53;;;;;;;4.28;3.25;;;22.50;63.30;;;;;;6051104;28;89141;-66
2022/03/02 12:27:59;;;;;;;3.00;2.70;;;22.50;63.40;;;;;;6052443;28;88289;-66
2022/03/02 12:31:11;;;;;;;3.38;3.08;;;22.50;63.50;;;;;;6065330;28;89274;-66
2022/03/02 12:34:14;;;;;;;4.00;2.80;;;22.50;63.50;;;;;;6063971;28;89345;-66
2022/03/02 12:37:19;;;;;;;3.63;3.33;;;22.50;63.50;;;;;;6060353;28;89079;-67
2022/03/02 12:40:24;;;;;;;3.28;2.97;;;22.50;63.50;;;;;;6054791;28;87952;-67
2022/03/02 12:43:27;;;;;;;4.43;3.00;;;22.50;63.50;;;;;;6053259;28;88845;-66
2022/03/02 12:46:30;;;;;;;2.92;2.72;;;22.50;63.50;;;;;;6043741;28;89153;-67
2022/03/02 12:49:33;;;;;;;2.85;2.65;;;22.50;63.60;;;;;;6063348;28;88122;-66
2022/03/02 12:52:36;;;;;;;3.63;3.15;;;22.50;63.70;;;;;;6065682;28;90103;-68
2022/03/02 12:55:42;;;;;;;3.25;2.90;;;22.50;63.90;;;;;;6040407;28;89190;-67
2022/03/02 12:58:44;;;;;;;3.80;3.47;;;22.50;64.20;;;;;;6040404;28;89451;-66
2022/03/02 13:01:47;;;;;;;3.70;3.35;;;22.70;64.90;;;;;;6049938;28;89039;-67
2022/03/02 13:05:03;;;;;;;3.30;3.00;;;22.80;66.20;;;;;;6048018;28;89101;-68
2022/03/02 13:08:30;;;;;;;3.90;3.60;;;22.80;64.80;;;;;;6053712;28;89119;-68
2022/03/02 13:11:32;;;;;;;3.75;3.35;;;22.90;65.40;;;;;;6053431;28;89166;-67
2022/03/02 13:14:36;;;;;;;4.28;3.33;;;22.90;66.80;;;;;;6061875;28;88106;-67
2022/03/02 13:17:38;;;;;;;3.80;3.50;;;23.00;65.50;;;;;;6051478;28;88937;-67
2022/03/02 13:20:42;;;;;;;4.53;3.22;;;23.10;64.70;;;;;;6050423;28;89325;-66
2022/03/02 13:24:09;;;;;;;3.50;3.20;;;23.30;64.10;;;;;;6040038;28;90112;-66
2022/03/02 13:27:12;;;;;;;4.15;2.92;;;23.40;63.70;;;;;;6061087;28;89301;-66
2022/03/02 13:30:16;;;;;;;3.83;3.22;;;23.40;63.40;;;;;;6058664;28;87815;-66
2022/03/02 13:33:18;;;;;;;4.28;3.28;;;23.40;63.30;;;;;;6050233;28;89096;-66
2022/03/02 13:36:33;;;;;;;3.88;2.85;;;23.40;63.30;;;;;;6042859;28;89077;-66
2022/03/02 13:39:47;;;;;;;3.53;3.22;;;23.30;62.70;;;;;;6051123;28;89057;-66
2022/03/02 13:42:50;;;;;;;3.85;3.45;;;23.20;61.30;;;;;;6051427;28;87988;-66
2022/03/02 13:46:22;;;;;;;4.03;3.50;;;23.20;60.30;;;;;;6063045;28;88436;-66
2022/03/02 13:49:26;;;;;;;3.72;3.13;;;23.10;60.00;;;;;;6050935;28;89228;-66
2022/03/02 13:53:00;;;;;;;3.88;3.47;;;23.00;59.50;;;;;;6063069;28;89088;-66
2022/03/02 13:56:07;;;;;;;4.07;3.45;;;23.00;58.90;;;;;;6056707;28;90025;-66
2022/03/02 13:59:26;;;;;;;3.55;3.08;;;23.00;58.20;;;;;;6040164;28;89514;-66
2022/03/02 14:02:36;;;;;;;3.95;3.53;;;22.90;57.80;;;;;;6050558;28;89476;-66
2022/03/02 14:05:46;;;;;;;4.47;3.30;;;22.90;57.40;;;;;;6050816;28;89248;-66
2022/03/02 14:08:51;;;;;;;4.82;3.33;;;22.90;57.00;;;;;;6046257;28;89185;-66
2022/03/02 14:11:56;;;;;;;3.90;3.50;;;22.90;56.60;;;;;;6055414;28;89338;-66
2022/03/02 14:15:09;;;;;;;4.75;3.65;;;22.80;56.10;;;;;;6053891;28;89131;-66
2022/03/02 14:18:17;;;;;;;4.38;3.60;;;22.80;55.80;;;;;;6054101;28;88286;-66
2022/03/02 14:21:19;;;;;;;4.35;3.90;;;22.80;55.50;;;;;;6044826;28;89111;-66
2022/03/02 14:24:22;;;;;;;4.57;3.58;;;22.70;55.30;;;;;;6048605;28;89023;-66
2022/03/02 14:27:29;;;;;;;4.88;4.00;;;22.70;55.20;;;;;;6054532;28;90430;-66
2022/03/02 14:30:32;;;;;;;4.20;3.80;;;22.60;55.10;;;;;;6048917;28;88723;-66
2022/03/02 14:33:35;;;;;;;5.90;4.00;;;22.70;54.90;;;;;;6051061;28;87212;-66
2022/03/02 14:36:37;;;;;;;4.72;4.10;;;22.60;54.70;;;;;;6050210;28;88888;-66
2022/03/02 14:40:00;;;;;;;4.32;3.92;;;22.60;54.60;;;;;;6047153;28;88024;-66
2022/03/02 14:43:06;;;;;;;4.47;3.65;;;22.60;54.40;;;;;;6048723;28;90026;-65
2022/03/02 14:46:08;;;;;;;4.47;4.07;;;22.50;54.60;;;;;;6038508;28;89515;-66
2022/03/02 14:49:10;;;;;;;5.20;4.18;;;22.60;54.40;;;;;;6051830;28;88756;-66
2022/03/02 14:52:12;;;;;;;4.43;3.88;;;22.50;54.20;;;;;;6044634;28;87148;-66
2022/03/02 14:55:31;;;;;;;4.43;4.03;;;22.50;54.00;;;;;;6057650;28;89088;-66
2022/03/02 14:58:39;;;;;;;5.03;4.53;;;22.50;54.00;;;;;;6040957;28;90542;-66
2022/03/02 15:01:41;;;;;;;4.60;4.20;;;22.50;53.70;;;;;;6051063;28;87576;-66
2022/03/02 15:04:55;;;;;;;5.10;4.60;;;22.40;53.50;;;;;;6049503;28;89245;-66
2022/03/02 15:07:58;;;;;;;5.43;4.55;;;22.40;53.20;;;;;;6058901;28;89254;-67
2022/03/02 15:11:11;;;;;;;4.80;4.13;;;22.40;53.20;;;;;;6050992;28;87805;-67
2022/03/02 15:17:36;;;;;;;5.10;4.60;;;22.40;52.80;;;;;;6052798;28;87045;-67
2022/03/02 15:20:40;;;;;;;6.22;5.45;;;22.40;52.50;;;;;;6038605;28;88218;-67
2022/03/02 15:23:43;;;;;;;6.38;5.20;;;22.40;52.50;;;;;;6051182;28;89073;-66
2022/03/02 15:26:50;;;;;;;5.43;4.82;;;22.40;52.20;;;;;;6049024;28;87991;-67
2022/03/02 15:29:54;;;;;;;11.13;6.20;;;22.40;52.00;;;;;;6037081;28;90092;-67
2022/03/02 15:33:03;;;;;;;7.32;5.32;;;22.40;51.90;;;;;;6047899;28;89045;-67
2022/03/02 15:36:11;;;;;;;7.43;5.20;;;22.40;51.60;;;;;;6057721;28;88389;-67
2022/03/02 15:39:23;;;;;;;8.13;5.13;;;22.30;51.60;;;;;;6047281;28;88338;-67
2022/03/02 15:42:28;;;;;;;6.25;4.82;;;22.30;51.60;;;;;;6056033;28;89122;-67
2022/03/02 15:45:33;;;;;;;12.48;6.15;;;22.30;51.90;;;;;;6042583;28;89433;-67
2022/03/02 15:48:36;;;;;;;6.55;4.95;;;22.30;52.90;;;;;;6059310;28;89399;-67
2022/03/02 15:51:38;;;;;;;8.02;5.65;;;22.30;53.30;;;;;;6052007;28;87750;-69
2022/03/02 15:54:54;;;;;;;9.27;4.97;;;22.30;54.00;;;;;;6057725;28;89125;-70
2022/03/02 15:57:58;;;;;;;15.23;6.55;;;22.30;54.80;;;;;;6052714;28;89159;-69
2022/03/02 16:01:02;;;;;;;11.00;5.70;;;22.30;56.80;;;;;;6048455;28;88922;-69
2022/03/02 16:04:10;;;;;;;12.00;5.53;;;22.40;56.40;;;;;;6062008;28;89248;-69
2022/03/02 16:07:18;;;;;;;10.10;5.15;;;22.40;56.80;;;;;;6052060;28;89506;-69